Terminal Aerodrome Forecast
Issued by NWS Denver/Boulder, CO

Home | Current Version | Previous Version | Text Only | Print | Product List | Glossary On
Versions: 1 2 3 4 5 6 7 8 9 10 11 12 13 14 15 16 17 18 19 20 21 22 23 24 25 26 27 28 29 30 31 32 33 34 35
000
FTUS45 KBOU 151906 AAA
TAFDEN
TAF AMD
KDEN 151906Z 1519/1624 VRB05KT P6SM FEW120 BKN200
     FM152200 23008KT P6SM SCT120 BKN200
     FM160000 28011KT P6SM SCT120 BKN200
     FM160200 22010KT P6SM SCT120 BKN200
     FM161000 31008KT P6SM FEW080 SCT120 BKN150
     FM161300 02010KT P6SM SCT060 BKN110
     FM162100 03009KT P6SM VCSH BKN060 OVC090=

USA.gov is the U.S. government's official web portal to all federal, state and local government web resources and services.